sensor_id;sensor_type;location;lat;lon;timestamp;P1;durP1;ratioP1;P2;durP2;ratioP2
11016;SDS011;54687;50.800;6.772;2023-06-22T00:00:52;6.72;;;4.55;;
11016;SDS011;54687;50.800;6.772;2023-06-22T00:03:21;4.97;;;4.35;;
11016;SDS011;54687;50.800;6.772;2023-06-22T00:05:50;5.50;;;4.50;;
11016;SDS011;54687;50.800;6.772;2023-06-22T00:08:17;5.57;;;5.05;;
11016;SDS011;54687;50.800;6.772;2023-06-22T00:10:44;5.90;;;4.75;;
11016;SDS011;54687;50.800;6.772;2023-06-22T00:13:12;5.90;;;4.32;;
11016;SDS011;54687;50.800;6.772;2023-06-22T00:15:40;4.80;;;4.40;;
11016;SDS011;54687;50.800;6.772;2023-06-22T00:18:08;4.75;;;4.32;;
11016;SDS011;54687;50.800;6.772;2023-06-22T00:20:37;4.55;;;4.15;;
11016;SDS011;54687;50.800;6.772;2023-06-22T00:23:04;4.38;;;3.90;;
11016;SDS011;54687;50.800;6.772;2023-06-22T00:25:33;5.72;;;4.30;;
11016;SDS011;54687;50.800;6.772;2023-06-22T00:28:00;4.82;;;4.40;;
11016;SDS011;54687;50.800;6.772;2023-06-22T00:30:26;5.28;;;4.00;;
11016;SDS011;54687;50.800;6.772;2023-06-22T00:32:53;7.90;;;4.65;;
11016;SDS011;54687;50.800;6.772;2023-06-22T00:35:19;4.47;;;4.10;;
11016;SDS011;54687;50.800;6.772;2023-06-22T00:37:48;4.82;;;4.05;;
11016;SDS011;54687;50.800;6.772;2023-06-22T00:40:14;8.13;;;4.65;;
11016;SDS011;54687;50.800;6.772;2023-06-22T00:42:42;5.47;;;4.18;;
11016;SDS011;54687;50.800;6.772;2023-06-22T00:45:09;4.72;;;4.30;;
11016;SDS011;54687;50.800;6.772;2023-06-22T00:47:36;5.05;;;4.05;;
11016;SDS011;54687;50.800;6.772;2023-06-22T00:50:04;5.53;;;5.03;;
11016;SDS011;54687;50.800;6.772;2023-06-22T00:52:33;5.65;;;4.55;;
11016;SDS011;54687;50.800;6.772;2023-06-22T00:55:02;4.35;;;3.95;;
11016;SDS011;54687;50.800;6.772;2023-06-22T00:57:29;6.00;;;4.47;;
11016;SDS011;54687;50.800;6.772;2023-06-22T00:59:56;4.88;;;4.47;;
11016;SDS011;54687;50.800;6.772;2023-06-22T01:02:23;5.40;;;4.80;;
11016;SDS011;54687;50.800;6.772;2023-06-22T01:04:49;5.28;;;4.78;;
11016;SDS011;54687;50.800;6.772;2023-06-22T01:07:18;5.53;;;5.03;;
11016;SDS011;54687;50.800;6.772;2023-06-22T01:09:51;4.70;;;4.30;;
11016;SDS011;54687;50.800;6.772;2023-06-22T01:12:25;5.50;;;4.90;;
11016;SDS011;54687;50.800;6.772;2023-06-22T01:14:57;5.75;;;4.75;;
11016;SDS011;54687;50.800;6.772;2023-06-22T01:17:31;5.05;;;4.57;;
11016;SDS011;54687;50.800;6.772;2023-06-22T01:19:59;4.93;;;4.53;;
11016;SDS011;54687;50.800;6.772;2023-06-22T01:22:30;8.43;;;4.72;;
11016;SDS011;54687;50.800;6.772;2023-06-22T01:25:07;5.50;;;5.00;;
11016;SDS011;54687;50.800;6.772;2023-06-22T01:27:43;5.57;;;5.07;;
11016;SDS011;54687;50.800;6.772;2023-06-22T01:30:18;5.68;;;5.07;;
11016;SDS011;54687;50.800;6.772;2023-06-22T01:32:46;5.18;;;4.68;;
11016;SDS011;54687;50.800;6.772;2023-06-22T01:35:14;4.93;;;4.53;;
11016;SDS011;54687;50.800;6.772;2023-06-22T01:37:42;5.90;;;4.95;;
11016;SDS011;54687;50.800;6.772;2023-06-22T01:40:09;5.55;;;4.90;;
11016;SDS011;54687;50.800;6.772;2023-06-22T01:42:37;5.32;;;4.63;;
11016;SDS011;54687;50.800;6.772;2023-06-22T01:45:05;4.75;;;4.35;;
11016;SDS011;54687;50.800;6.772;2023-06-22T01:47:34;5.00;;;4.57;;
11016;SDS011;54687;50.800;6.772;2023-06-22T01:50:02;5.70;;;4.82;;
11016;SDS011;54687;50.800;6.772;2023-06-22T01:52:29;5.50;;;4.90;;
11016;SDS011;54687;50.800;6.772;2023-06-22T01:54:55;5.05;;;4.55;;
11016;SDS011;54687;50.800;6.772;2023-06-22T01:57:23;6.70;;;5.28;;
11016;SDS011;54687;50.800;6.772;2023-06-22T01:59:52;5.03;;;4.53;;
11016;SDS011;54687;50.800;6.772;2023-06-22T02:02:25;6.25;;;5.00;;
11016;SDS011;54687;50.800;6.772;2023-06-22T02:04:58;4.28;;;3.92;;
11016;SDS011;54687;50.800;6.772;2023-06-22T02:07:29;4.80;;;4.40;;
11016;SDS011;54687;50.800;6.772;2023-06-22T02:09:59;5.50;;;5.00;;
11016;SDS011;54687;50.800;6.772;2023-06-22T02:12:28;5.30;;;4.80;;
11016;SDS011;54687;50.800;6.772;2023-06-22T02:14:57;6.50;;;4.85;;
11016;SDS011;54687;50.800;6.772;2023-06-22T02:17:25;6.43;;;4.47;;
11016;SDS011;54687;50.800;6.772;2023-06-22T02:19:52;6.93;;;4.88;;
11016;SDS011;54687;50.800;6.772;2023-06-22T02:22:20;6.82;;;4.75;;
11016;SDS011;54687;50.800;6.772;2023-06-22T02:24:47;5.25;;;4.75;;
11016;SDS011;54687;50.800;6.772;2023-06-22T02:27:13;5.35;;;4.85;;
11016;SDS011;54687;50.800;6.772;2023-06-22T02:29:40;5.18;;;4.30;;
11016;SDS011;54687;50.800;6.772;2023-06-22T02:32:07;4.50;;;4.10;;
11016;SDS011;54687;50.800;6.772;2023-06-22T02:34:33;5.50;;;5.00;;
11016;SDS011;54687;50.800;6.772;2023-06-22T02:37:01;5.93;;;4.78;;
11016;SDS011;54687;50.800;6.772;2023-06-22T02:39:30;4.32;;;3.92;;
11016;SDS011;54687;50.800;6.772;2023-06-22T02:41:56;5.50;;;4.60;;
11016;SDS011;54687;50.800;6.772;2023-06-22T02:44:23;6.30;;;4.72;;
11016;SDS011;54687;50.800;6.772;2023-06-22T02:46:49;5.50;;;5.00;;
11016;SDS011;54687;50.800;6.772;2023-06-22T02:49:16;5.97;;;5.25;;
11016;SDS011;54687;50.800;6.772;2023-06-22T02:51:45;7.43;;;5.22;;
11016;SDS011;54687;50.800;6.772;2023-06-22T02:54:12;5.75;;;5.03;;
11016;SDS011;54687;50.800;6.772;2023-06-22T02:56:41;6.80;;;5.40;;
11016;SDS011;54687;50.800;6.772;2023-06-22T02:59:09;6.10;;;5.10;;
11016;SDS011;54687;50.800;6.772;2023-06-22T03:01:36;6.40;;;5.32;;
11016;SDS011;54687;50.800;6.772;2023-06-22T03:04:05;5.55;;;5.05;;
11016;SDS011;54687;50.800;6.772;2023-06-22T03:06:32;7.35;;;5.50;;
11016;SDS011;54687;50.800;6.772;2023-06-22T03:08:59;5.95;;;5.35;;
11016;SDS011;54687;50.800;6.772;2023-06-22T03:11:29;6.00;;;5.50;;
11016;SDS011;54687;50.800;6.772;2023-06-22T03:13:57;6.95;;;5.30;;
11016;SDS011;54687;50.800;6.772;2023-06-22T03:16:23;5.80;;;5.22;;
11016;SDS011;54687;50.800;6.772;2023-06-22T03:18:50;6.05;;;5.05;;
11016;SDS011;54687;50.800;6.772;2023-06-22T03:21:18;6.45;;;5.40;;
11016;SDS011;54687;50.800;6.772;2023-06-22T03:23:45;6.88;;;5.07;;
11016;SDS011;54687;50.800;6.772;2023-06-22T03:26:11;6.35;;;5.18;;
11016;SDS011;54687;50.800;6.772;2023-06-22T03:28:39;6.03;;;5.28;;
11016;SDS011;54687;50.800;6.772;2023-06-22T03:31:07;5.93;;;5.32;;
11016;SDS011;54687;50.800;6.772;2023-06-22T03:33:34;7.32;;;5.38;;
11016;SDS011;54687;50.800;6.772;2023-06-22T03:36:01;5.40;;;4.90;;
11016;SDS011;54687;50.800;6.772;2023-06-22T03:38:27;6.10;;;4.85;;
11016;SDS011;54687;50.800;6.772;2023-06-22T03:40:54;5.68;;;5.15;;
11016;SDS011;54687;50.800;6.772;2023-06-22T03:43:21;7.03;;;4.97;;
11016;SDS011;54687;50.800;6.772;2023-06-22T03:45:47;6.18;;;4.95;;
11016;SDS011;54687;50.800;6.772;2023-06-22T03:48:15;6.75;;;5.68;;
11016;SDS011;54687;50.800;6.772;2023-06-22T03:50:42;7.22;;;5.20;;
11016;SDS011;54687;50.800;6.772;2023-06-22T03:53:09;6.40;;;5.80;;
11016;SDS011;54687;50.800;6.772;2023-06-22T03:55:36;6.55;;;5.95;;
11016;SDS011;54687;50.800;6.772;2023-06-22T03:58:03;6.20;;;5.60;;
11016;SDS011;54687;50.800;6.772;2023-06-22T04:00:31;6.65;;;5.82;;
11016;SDS011;54687;50.800;6.772;2023-06-22T04:02:57;6.05;;;5.50;;
11016;SDS011;54687;50.800;6.772;2023-06-22T04:05:25;5.93;;;5.32;;
11016;SDS011;54687;50.800;6.772;2023-06-22T04:07:52;6.55;;;5.95;;
11016;SDS011;54687;50.800;6.772;2023-06-22T04:10:19;6.20;;;5.68;;
11016;SDS011;54687;50.800;6.772;2023-06-22T04:12:46;6.05;;;5.60;;
11016;SDS011;54687;50.800;6.772;2023-06-22T04:15:13;6.45;;;5.85;;
11016;SDS011;54687;50.800;6.772;2023-06-22T04:17:40;6.35;;;5.68;;
11016;SDS011;54687;50.800;6.772;2023-06-22T04:20:07;5.85;;;5.35;;
11016;SDS011;54687;50.800;6.772;2023-06-22T04:22:35;6.03;;;5.43;;
11016;SDS011;54687;50.800;6.772;2023-06-22T04:25:02;5.88;;;5.35;;
11016;SDS011;54687;50.800;6.772;2023-06-22T04:27:29;7.60;;;6.18;;
11016;SDS011;54687;50.800;6.772;2023-06-22T04:29:55;6.78;;;5.60;;
11016;SDS011;54687;50.800;6.772;2023-06-22T04:32:25;6.53;;;5.90;;
11016;SDS011;54687;50.800;6.772;2023-06-22T04:34:51;7.40;;;5.53;;
11016;SDS011;54687;50.800;6.772;2023-06-22T04:37:18;10.73;;;5.78;;
11016;SDS011;54687;50.800;6.772;2023-06-22T04:39:49;6.07;;;5.00;;
11016;SDS011;54687;50.800;6.772;2023-06-22T04:42:16;8.23;;;6.05;;
11016;SDS011;54687;50.800;6.772;2023-06-22T04:44:43;7.85;;;6.50;;
11016;SDS011;54687;50.800;6.772;2023-06-22T04:47:09;6.55;;;5.88;;
11016;SDS011;54687;50.800;6.772;2023-06-22T04:49:36;8.70;;;5.95;;
11016;SDS011;54687;50.800;6.772;2023-06-22T04:52:05;6.00;;;5.40;;
11016;SDS011;54687;50.800;6.772;2023-06-22T04:54:34;7.28;;;6.03;;
11016;SDS011;54687;50.800;6.772;2023-06-22T04:57:04;7.53;;;6.63;;
11016;SDS011;54687;50.800;6.772;2023-06-22T04:59:35;7.80;;;5.95;;
11016;SDS011;54687;50.800;6.772;2023-06-22T05:02:04;7.25;;;5.55;;
11016;SDS011;54687;50.800;6.772;2023-06-22T05:04:33;6.15;;;5.28;;
11016;SDS011;54687;50.800;6.772;2023-06-22T05:07:03;7.40;;;5.95;;
11016;SDS011;54687;50.800;6.772;2023-06-22T05:09:30;7.18;;;5.65;;
11016;SDS011;54687;50.800;6.772;2023-06-22T05:11:59;7.43;;;5.95;;
11016;SDS011;54687;50.800;6.772;2023-06-22T05:14:29;7.45;;;6.18;;
11016;SDS011;54687;50.800;6.772;2023-06-22T05:16:55;7.90;;;5.82;;
11016;SDS011;54687;50.800;6.772;2023-06-22T05:19:24;8.45;;;5.95;;
11016;SDS011;54687;50.800;6.772;2023-06-22T05:21:59;14.13;;;5.78;;
11016;SDS011;54687;50.800;6.772;2023-06-22T05:24:26;8.05;;;5.88;;
11016;SDS011;54687;50.800;6.772;2023-06-22T05:26:52;7.03;;;5.65;;
11016;SDS011;54687;50.800;6.772;2023-06-22T05:29:19;10.45;;;6.72;;
11016;SDS011;54687;50.800;6.772;2023-06-22T05:31:49;8.48;;;5.70;;
11016;SDS011;54687;50.800;6.772;2023-06-22T05:34:16;6.72;;;5.90;;
11016;SDS011;54687;50.800;6.772;2023-06-22T05:36:43;7.55;;;6.03;;
11016;SDS011;54687;50.800;6.772;2023-06-22T05:39:12;6.88;;;5.43;;
11016;SDS011;54687;50.800;6.772;2023-06-22T05:41:40;9.93;;;6.25;;
11016;SDS011;54687;50.800;6.772;2023-06-22T05:44:08;6.53;;;5.85;;
11016;SDS011;54687;50.800;6.772;2023-06-22T05:46:36;6.32;;;5.70;;
11016;SDS011;54687;50.800;6.772;2023-06-22T05:49:05;6.70;;;5.95;;
11016;SDS011;54687;50.800;6.772;2023-06-22T05:51:32;7.22;;;5.13;;
11016;SDS011;54687;50.800;6.772;2023-06-22T05:53:58;6.07;;;5.47;;
11016;SDS011;54687;50.800;6.772;2023-06-22T05:56:25;7.90;;;6.07;;
11016;SDS011;54687;50.800;6.772;2023-06-22T05:58:51;8.32;;;6.63;;
11016;SDS011;54687;50.800;6.772;2023-06-22T06:01:18;9.18;;;6.93;;
11016;SDS011;54687;50.800;6.772;2023-06-22T06:03:45;7.88;;;6.03;;
11016;SDS011;54687;50.800;6.772;2023-06-22T06:06:13;6.88;;;6.18;;
11016;SDS011;54687;50.800;6.772;2023-06-22T06:08:41;7.38;;;6.43;;
11016;SDS011;54687;50.800;6.772;2023-06-22T06:11:08;8.05;;;6.80;;
11016;SDS011;54687;50.800;6.772;2023-06-22T06:13:35;10.18;;;6.97;;
11016;SDS011;54687;50.800;6.772;2023-06-22T06:16:01;8.43;;;6.53;;
11016;SDS011;54687;50.800;6.772;2023-06-22T06:18:28;8.95;;;6.07;;
11016;SDS011;54687;50.800;6.772;2023-06-22T06:20:55;6.88;;;6.18;;
11016;SDS011;54687;50.800;6.772;2023-06-22T06:23:23;8.52;;;7.72;;
11016;SDS011;54687;50.800;6.772;2023-06-22T06:25:50;8.68;;;7.55;;
11016;SDS011;54687;50.800;6.772;2023-06-22T06:28:16;7.05;;;6.35;;
11016;SDS011;54687;50.800;6.772;2023-06-22T06:30:43;9.35;;;6.80;;
11016;SDS011;54687;50.800;6.772;2023-06-22T06:33:09;9.48;;;8.68;;
11016;SDS011;54687;50.800;6.772;2023-06-22T06:35:36;8.55;;;6.47;;
11016;SDS011;54687;50.800;6.772;2023-06-22T06:38:02;8.38;;;7.47;;
11016;SDS011;54687;50.800;6.772;2023-06-22T06:40:31;8.13;;;7.32;;
11016;SDS011;54687;50.800;6.772;2023-06-22T06:42:57;7.82;;;7.15;;
11016;SDS011;54687;50.800;6.772;2023-06-22T06:45:24;8.25;;;7.25;;
11016;SDS011;54687;50.800;6.772;2023-06-22T06:47:56;7.13;;;6.38;;
11016;SDS011;54687;50.800;6.772;2023-06-22T06:50:22;7.60;;;6.90;;
11016;SDS011;54687;50.800;6.772;2023-06-22T06:52:49;7.40;;;6.72;;
11016;SDS011;54687;50.800;6.772;2023-06-22T06:55:16;7.85;;;7.05;;
11016;SDS011;54687;50.800;6.772;2023-06-22T06:57:46;7.18;;;6.68;;
11016;SDS011;54687;50.800;6.772;2023-06-22T07:00:13;8.63;;;7.10;;
11016;SDS011;54687;50.800;6.772;2023-06-22T07:02:41;7.30;;;6.60;;
11016;SDS011;54687;50.800;6.772;2023-06-22T07:05:09;8.13;;;7.07;;
11016;SDS011;54687;50.800;6.772;2023-06-22T07:07:37;7.88;;;7.05;;
11016;SDS011;54687;50.800;6.772;2023-06-22T07:10:04;7.00;;;6.40;;
11016;SDS011;54687;50.800;6.772;2023-06-22T07:12:31;8.10;;;7.30;;
11016;SDS011;54687;50.800;6.772;2023-06-22T07:15:02;8.73;;;6.90;;
11016;SDS011;54687;50.800;6.772;2023-06-22T07:17:30;8.60;;;7.43;;
11016;SDS011;54687;50.800;6.772;2023-06-22T07:19:57;7.40;;;6.70;;
11016;SDS011;54687;50.800;6.772;2023-06-22T07:22:24;7.93;;;7.15;;
11016;SDS011;54687;50.800;6.772;2023-06-22T07:24:51;8.57;;;7.80;;
11016;SDS011;54687;50.800;6.772;2023-06-22T07:27:19;11.70;;;8.38;;
11016;SDS011;54687;50.800;6.772;2023-06-22T07:29:46;8.50;;;7.70;;
11016;SDS011;54687;50.800;6.772;2023-06-22T07:32:14;11.18;;;8.20;;
11016;SDS011;54687;50.800;6.772;2023-06-22T07:34:40;8.65;;;7.78;;
11016;SDS011;54687;50.800;6.772;2023-06-22T07:37:08;8.80;;;7.80;;
11016;SDS011;54687;50.800;6.772;2023-06-22T07:39:35;9.77;;;8.93;;
11016;SDS011;54687;50.800;6.772;2023-06-22T07:42:03;7.90;;;7.13;;
11016;SDS011;54687;50.800;6.772;2023-06-22T07:44:29;8.13;;;7.32;;
11016;SDS011;54687;50.800;6.772;2023-06-22T07:46:56;8.55;;;7.72;;
11016;SDS011;54687;50.800;6.772;2023-06-22T07:49:24;8.73;;;8.10;;
11016;SDS011;54687;50.800;6.772;2023-06-22T07:51:50;8.93;;;8.13;;
11016;SDS011;54687;50.800;6.772;2023-06-22T07:54:17;9.10;;;8.30;;
11016;SDS011;54687;50.800;6.772;2023-06-22T07:56:44;8.85;;;8.20;;
11016;SDS011;54687;50.800;6.772;2023-06-22T07:59:12;9.43;;;7.82;;
11016;SDS011;54687;50.800;6.772;2023-06-22T08:01:41;9.48;;;8.57;;
11016;SDS011;54687;50.800;6.772;2023-06-22T08:04:07;9.77;;;8.77;;
11016;SDS011;54687;50.800;6.772;2023-06-22T08:06:35;10.07;;;9.27;;
11016;SDS011;54687;50.800;6.772;2023-06-22T08:09:02;10.15;;;9.35;;
11016;SDS011;54687;50.800;6.772;2023-06-22T08:11:29;10.95;;;9.98;;
11016;SDS011;54687;50.800;6.772;2023-06-22T08:13:56;12.18;;;11.05;;
11016;SDS011;54687;50.800;6.772;2023-06-22T08:16:23;11.93;;;10.88;;
11016;SDS011;54687;50.800;6.772;2023-06-22T08:18:50;12.18;;;11.13;;
11016;SDS011;54687;50.800;6.772;2023-06-22T08:21:17;13.18;;;11.85;;
11016;SDS011;54687;50.800;6.772;2023-06-22T08:23:45;19.65;;;11.60;;
11016;SDS011;54687;50.800;6.772;2023-06-22T08:26:12;11.27;;;10.25;;
11016;SDS011;54687;50.800;6.772;2023-06-22T08:28:38;12.88;;;11.65;;
11016;SDS011;54687;50.800;6.772;2023-06-22T08:31:05;11.35;;;10.45;;
11016;SDS011;54687;50.800;6.772;2023-06-22T08:33:34;10.68;;;9.73;;
11016;SDS011;54687;50.800;6.772;2023-06-22T08:36:00;8.93;;;8.13;;
11016;SDS011;54687;50.800;6.772;2023-06-22T08:38:27;11.20;;;10.35;;
11016;SDS011;54687;50.800;6.772;2023-06-22T08:40:55;8.98;;;8.05;;
11016;SDS011;54687;50.800;6.772;2023-06-22T08:43:22;10.45;;;9.55;;
11016;SDS011;54687;50.800;6.772;2023-06-22T08:45:48;14.77;;;10.98;;
11016;SDS011;54687;50.800;6.772;2023-06-22T08:48:16;8.77;;;7.97;;
11016;SDS011;54687;50.800;6.772;2023-06-22T08:50:45;9.13;;;8.23;;
11016;SDS011;54687;50.800;6.772;2023-06-22T08:53:11;8.52;;;7.72;;
11016;SDS011;54687;50.800;6.772;2023-06-22T08:55:38;9.98;;;8.90;;
11016;SDS011;54687;50.800;6.772;2023-06-22T08:58:06;9.27;;;8.48;;
11016;SDS011;54687;50.800;6.772;2023-06-22T09:00:32;9.70;;;8.80;;
11016;SDS011;54687;50.800;6.772;2023-06-22T09:03:00;9.15;;;8.35;;
11016;SDS011;54687;50.800;6.772;2023-06-22T09:05:26;8.43;;;7.82;;
11016;SDS011;54687;50.800;6.772;2023-06-22T09:07:53;10.52;;;9.48;;
11016;SDS011;54687;50.800;6.772;2023-06-22T09:10:20;8.70;;;7.95;;
11016;SDS011;54687;50.800;6.772;2023-06-22T09:12:47;9.35;;;8.52;;
11016;SDS011;54687;50.800;6.772;2023-06-22T09:15:15;9.65;;;8.75;;
11016;SDS011;54687;50.800;6.772;2023-06-22T09:17:43;9.15;;;8.30;;
11016;SDS011;54687;50.800;6.772;2023-06-22T09:20:11;8.77;;;8.00;;
11016;SDS011;54687;50.800;6.772;2023-06-22T09:22:38;9.15;;;8.35;;
11016;SDS011;54687;50.800;6.772;2023-06-22T09:25:05;8.43;;;7.72;;
11016;SDS011;54687;50.800;6.772;2023-06-22T09:27:32;9.57;;;8.77;;
11016;SDS011;54687;50.800;6.772;2023-06-22T09:29:59;9.15;;;8.40;;
11016;SDS011;54687;50.800;6.772;2023-06-22T09:32:29;10.35;;;8.55;;
11016;SDS011;54687;50.800;6.772;2023-06-22T09:34:55;8.85;;;8.00;;
11016;SDS011;54687;50.800;6.772;2023-06-22T09:37:23;9.07;;;8.18;;
11016;SDS011;54687;50.800;6.772;2023-06-22T09:39:49;8.55;;;7.80;;
11016;SDS011;54687;50.800;6.772;2023-06-22T09:42:16;8.20;;;7.50;;
11016;SDS011;54687;50.800;6.772;2023-06-22T09:44:43;9.63;;;8.77;;
11016;SDS011;54687;50.800;6.772;2023-06-22T09:47:09;9.98;;;9.00;;
11016;SDS011;54687;50.800;6.772;2023-06-22T09:49:37;10.02;;;9.15;;
11016;SDS011;54687;50.800;6.772;2023-06-22T09:52:04;13.93;;;9.35;;
11016;SDS011;54687;50.800;6.772;2023-06-22T09:54:31;8.95;;;8.15;;
11016;SDS011;54687;50.800;6.772;2023-06-22T09:56:58;9.85;;;9.05;;
11016;SDS011;54687;50.800;6.772;2023-06-22T09:59:25;9.43;;;8.60;;
11016;SDS011;54687;50.800;6.772;2023-06-22T10:01:51;20.30;;;14.23;;
11016;SDS011;54687;50.800;6.772;2023-06-22T10:04:18;9.32;;;8.52;;
11016;SDS011;54687;50.800;6.772;2023-06-22T10:06:46;16.23;;;13.00;;
11016;SDS011;54687;50.800;6.772;2023-06-22T10:09:12;12.60;;;11.10;;
11016;SDS011;54687;50.800;6.772;2023-06-22T10:11:39;9.90;;;8.90;;
11016;SDS011;54687;50.800;6.772;2023-06-22T10:14:07;12.63;;;9.13;;
11016;SDS011;54687;50.800;6.772;2023-06-22T10:16:36;11.02;;;10.02;;
11016;SDS011;54687;50.800;6.772;2023-06-22T10:19:02;12.13;;;10.90;;
11016;SDS011;54687;50.800;6.772;2023-06-22T10:21:29;26.83;;;10.43;;
11016;SDS011;54687;50.800;6.772;2023-06-22T10:23:58;45.50;;;13.85;;
11016;SDS011;54687;50.800;6.772;2023-06-22T10:26:28;38.13;;;13.95;;
11016;SDS011;54687;50.800;6.772;2023-06-22T10:28:55;19.85;;;11.60;;
11016;SDS011;54687;50.800;6.772;2023-06-22T10:31:21;12.80;;;10.77;;
11016;SDS011;54687;50.800;6.772;2023-06-22T10:33:48;13.38;;;10.25;;
11016;SDS011;54687;50.800;6.772;2023-06-22T10:36:15;11.00;;;10.00;;
11016;SDS011;54687;50.800;6.772;2023-06-22T10:38:42;13.45;;;10.95;;
11016;SDS011;54687;50.800;6.772;2023-06-22T10:41:10;11.10;;;9.98;;
11016;SDS011;54687;50.800;6.772;2023-06-22T10:43:36;12.95;;;9.95;;
11016;SDS011;54687;50.800;6.772;2023-06-22T10:46:03;13.15;;;11.57;;
11016;SDS011;54687;50.800;6.772;2023-06-22T10:48:30;11.25;;;10.23;;
11016;SDS011;54687;50.800;6.772;2023-06-22T10:50:56;16.15;;;12.73;;
11016;SDS011;54687;50.800;6.772;2023-06-22T10:53:23;31.10;;;28.42;;
11016;SDS011;54687;50.800;6.772;2023-06-22T10:55:50;13.38;;;12.10;;
11016;SDS011;54687;50.800;6.772;2023-06-22T10:58:19;13.77;;;12.35;;
11016;SDS011;54687;50.800;6.772;2023-06-22T11:00:46;14.50;;;13.15;;
11016;SDS011;54687;50.800;6.772;2023-06-22T11:03:12;16.20;;;14.65;;
11016;SDS011;54687;50.800;6.772;2023-06-22T11:05:40;13.68;;;12.57;;
11016;SDS011;54687;50.800;6.772;2023-06-22T11:08:07;12.40;;;11.40;;
11016;SDS011;54687;50.800;6.772;2023-06-22T11:10:33;14.45;;;13.15;;
11016;SDS011;54687;50.800;6.772;2023-06-22T11:13:00;14.27;;;12.98;;
11016;SDS011;54687;50.800;6.772;2023-06-22T11:15:31;13.57;;;12.20;;
11016;SDS011;54687;50.800;6.772;2023-06-22T11:17:58;12.88;;;11.68;;
11016;SDS011;54687;50.800;6.772;2023-06-22T11:20:24;13.18;;;11.95;;
11016;SDS011;54687;50.800;6.772;2023-06-22T11:22:51;13.40;;;12.30;;
11016;SDS011;54687;50.800;6.772;2023-06-22T11:25:18;12.75;;;11.75;;
11016;SDS011;54687;50.800;6.772;2023-06-22T11:27:44;13.85;;;12.75;;
11016;SDS011;54687;50.800;6.772;2023-06-22T11:30:11;14.70;;;13.40;;
11016;SDS011;54687;50.800;6.772;2023-06-22T11:32:39;16.45;;;14.85;;
11016;SDS011;54687;50.800;6.772;2023-06-22T11:35:06;14.07;;;12.88;;
11016;SDS011;54687;50.800;6.772;2023-06-22T11:37:33;15.75;;;14.35;;
11016;SDS011;54687;50.800;6.772;2023-06-22T11:40:00;17.23;;;13.95;;
11016;SDS011;54687;50.800;6.772;2023-06-22T11:42:28;17.15;;;15.75;;
11016;SDS011;54687;50.800;6.772;2023-06-22T11:44:55;15.18;;;13.98;;
11016;SDS011;54687;50.800;6.772;2023-06-22T11:47:21;15.10;;;13.80;;
11016;SDS011;54687;50.800;6.772;2023-06-22T11:49:49;15.40;;;14.00;;
11016;SDS011;54687;50.800;6.772;2023-06-22T11:52:16;16.60;;;15.38;;
11016;SDS011;54687;50.800;6.772;2023-06-22T11:54:44;17.10;;;15.60;;
11016;SDS011;54687;50.800;6.772;2023-06-22T11:57:11;16.45;;;14.90;;
11016;SDS011;54687;50.800;6.772;2023-06-22T11:59:38;14.88;;;13.48;;
11016;SDS011;54687;50.800;6.772;2023-06-22T12:02:05;15.43;;;14.02;;
11016;SDS011;54687;50.800;6.772;2023-06-22T12:04:32;14.32;;;13.07;;
11016;SDS011;54687;50.800;6.772;2023-06-22T12:07:01;14.18;;;12.98;;
11016;SDS011;54687;50.800;6.772;2023-06-22T12:09:27;15.23;;;13.93;;
11016;SDS011;54687;50.800;6.772;2023-06-22T12:11:54;14.98;;;13.48;;
11016;SDS011;54687;50.800;6.772;2023-06-22T12:14:21;14.70;;;13.50;;
11016;SDS011;54687;50.800;6.772;2023-06-22T12:16:48;15.27;;;13.77;;
11016;SDS011;54687;50.800;6.772;2023-06-22T12:19:14;14.45;;;13.10;;
11016;SDS011;54687;50.800;6.772;2023-06-22T12:21:42;14.10;;;12.77;;
11016;SDS011;54687;50.800;6.772;2023-06-22T12:24:12;12.80;;;11.60;;
11016;SDS011;54687;50.800;6.772;2023-06-22T12:26:39;12.93;;;11.73;;
11016;SDS011;54687;50.800;6.772;2023-06-22T12:29:05;11.48;;;10.57;;
11016;SDS011;54687;50.800;6.772;2023-06-22T12:31:32;12.82;;;11.82;;
11016;SDS011;54687;50.800;6.772;2023-06-22T12:33:58;12.23;;;10.95;;
11016;SDS011;54687;50.800;6.772;2023-06-22T12:36:25;12.85;;;11.75;;
11016;SDS011;54687;50.800;6.772;2023-06-22T12:38:51;11.98;;;10.93;;
11016;SDS011;54687;50.800;6.772;2023-06-22T12:41:23;10.65;;;9.75;;
11016;SDS011;54687;50.800;6.772;2023-06-22T12:43:49;13.45;;;12.15;;
11016;SDS011;54687;50.800;6.772;2023-06-22T12:46:16;11.48;;;10.57;;
11016;SDS011;54687;50.800;6.772;2023-06-22T12:48:42;12.40;;;11.38;;
11016;SDS011;54687;50.800;6.772;2023-06-22T12:51:09;11.23;;;10.25;;
11016;SDS011;54687;50.800;6.772;2023-06-22T12:53:36;10.13;;;9.30;;
11016;SDS011;54687;50.800;6.772;2023-06-22T12:56:03;9.70;;;9.00;;
11016;SDS011;54687;50.800;6.772;2023-06-22T12:58:31;10.80;;;9.88;;
11016;SDS011;54687;50.800;6.772;2023-06-22T13:00:58;9.80;;;9.10;;
11016;SDS011;54687;50.800;6.772;2023-06-22T13:03:24;10.40;;;9.45;;
11016;SDS011;54687;50.800;6.772;2023-06-22T13:05:53;10.52;;;9.63;;
11016;SDS011;54687;50.800;6.772;2023-06-22T13:08:21;10.80;;;9.70;;
11016;SDS011;54687;50.800;6.772;2023-06-22T13:10:48;11.38;;;10.27;;
11016;SDS011;54687;50.800;6.772;2023-06-22T13:13:15;11.63;;;10.43;;
11016;SDS011;54687;50.800;6.772;2023-06-22T13:15:47;10.23;;;9.43;;
11016;SDS011;54687;50.800;6.772;2023-06-22T13:18:13;11.35;;;10.35;;
11016;SDS011;54687;50.800;6.772;2023-06-22T13:20:40;14.15;;;12.95;;
11016;SDS011;54687;50.800;6.772;2023-06-22T13:23:07;13.13;;;11.98;;
11016;SDS011;54687;50.800;6.772;2023-06-22T13:25:33;13.57;;;12.48;;
11016;SDS011;54687;50.800;6.772;2023-06-22T13:28:00;11.00;;;10.20;;
11016;SDS011;54687;50.800;6.772;2023-06-22T13:30:26;13.93;;;12.73;;
11016;SDS011;54687;50.800;6.772;2023-06-22T13:32:55;12.35;;;11.35;;
11016;SDS011;54687;50.800;6.772;2023-06-22T13:35:22;12.20;;;11.30;;
11016;SDS011;54687;50.800;6.772;2023-06-22T13:37:49;11.98;;;10.98;;
11016;SDS011;54687;50.800;6.772;2023-06-22T13:40:15;10.80;;;10.00;;
11016;SDS011;54687;50.800;6.772;2023-06-22T13:42:43;11.15;;;10.25;;
11016;SDS011;54687;50.800;6.772;2023-06-22T13:45:10;11.55;;;10.65;;
11016;SDS011;54687;50.800;6.772;2023-06-22T13:47:36;10.60;;;9.80;;
11016;SDS011;54687;50.800;6.772;2023-06-22T13:50:05;11.32;;;10.43;;
11016;SDS011;54687;50.800;6.772;2023-06-22T13:52:32;11.35;;;10.45;;
11016;SDS011;54687;50.800;6.772;2023-06-22T13:54:58;10.98;;;9.85;;
11016;SDS011;54687;50.800;6.772;2023-06-22T13:57:25;10.68;;;9.75;;
11016;SDS011;54687;50.800;6.772;2023-06-22T13:59:52;9.40;;;8.60;;
11016;SDS011;54687;50.800;6.772;2023-06-22T14:02:20;10.10;;;9.20;;
11016;SDS011;54687;50.800;6.772;2023-06-22T14:04:47;10.13;;;9.32;;
11016;SDS011;54687;50.800;6.772;2023-06-22T14:07:16;10.63;;;9.63;;
11016;SDS011;54687;50.800;6.772;2023-06-22T14:09:44;11.02;;;10.02;;
11016;SDS011;54687;50.800;6.772;2023-06-22T14:12:11;9.82;;;9.02;;
11016;SDS011;54687;50.800;6.772;2023-06-22T14:14:38;9.63;;;8.73;;
11016;SDS011;54687;50.800;6.772;2023-06-22T14:17:05;11.27;;;10.38;;
11016;SDS011;54687;50.800;6.772;2023-06-22T14:19:31;12.10;;;11.05;;
11016;SDS011;54687;50.800;6.772;2023-06-22T14:21:59;10.43;;;9.50;;
11016;SDS011;54687;50.800;6.772;2023-06-22T14:24:27;10.57;;;9.68;;
11016;SDS011;54687;50.800;6.772;2023-06-22T14:26:54;11.00;;;9.90;;
11016;SDS011;54687;50.800;6.772;2023-06-22T14:29:21;10.75;;;9.70;;
11016;SDS011;54687;50.800;6.772;2023-06-22T14:31:48;11.13;;;8.77;;
11016;SDS011;54687;50.800;6.772;2023-06-22T14:34:15;9.25;;;8.38;;
11016;SDS011;54687;50.800;6.772;2023-06-22T14:36:41;8.23;;;7.47;;
11016;SDS011;54687;50.800;6.772;2023-06-22T14:39:09;8.43;;;7.72;;
11016;SDS011;54687;50.800;6.772;2023-06-22T14:41:38;8.25;;;7.55;;